Time;durP1;ratioP1;P1;durP2;ratioP2;P2;SDS_P1;SDS_P2;PMS_P1;PMS_P2;Temp;Humidity;BMP_temperature;BMP_pressure;BME280_temperature;BME280_humidity;BME280_pressure;Samples;Min_cycle;Max_cycle;Signal;HPM_P1;HPM_P2
2023/07/28 00:00:26;;;;;;;0.00;0.00;;;;;;;18.01;100.00;99811.59;5011808;28;20025;-59
2023/07/28 00:02:51;;;;;;;0.00;0.00;;;;;;;17.99;100.00;99810.22;5017696;28;20057;-61
2023/07/28 00:05:16;;;;;;;0.40;0.00;;;;;;;17.91;100.00;99808.81;5017529;28;20029;-61
2023/07/28 00:07:42;;;;;;;0.82;0.00;;;;;;;17.81;100.00;99817.63;5019552;28;20041;-62
2023/07/28 00:10:07;;;;;;;0.00;0.00;;;;;;;17.75;100.00;99813.22;5023436;28;20038;-62
2023/07/28 00:12:34;;;;;;;0.13;0.00;;;;;;;17.66;100.00;99812.88;5019386;28;20787;-61
2023/07/28 00:14:59;;;;;;;0.00;0.00;;;;;;;17.52;100.00;99814.34;5017847;28;20167;-61
2023/07/28 00:17:25;;;;;;;0.00;0.00;;;;;;;17.45;100.00;99821.78;5014314;28;20033;-61
2023/07/28 00:19:51;;;;;;;0.00;0.00;;;;;;;17.48;100.00;99826.66;5019318;28;20033;-61
2023/07/28 00:22:16;;;;;;;1.45;0.10;;;;;;;17.56;100.00;99828.06;5022219;28;20387;-61
2023/07/28 00:24:41;;;;;;;0.10;0.00;;;;;;;17.60;100.00;99829.16;5019291;28;20913;-62
2023/07/28 00:27:06;;;;;;;0.00;0.00;;;;;;;17.69;100.00;99832.22;5019586;28;20042;-61
2023/07/28 00:29:32;;;;;;;1.10;0.00;;;;;;;17.82;100.00;99831.81;5019929;28;20036;-64
2023/07/28 00:31:57;;;;;;;0.00;0.00;;;;;;;17.87;100.00;99835.34;5021414;28;20124;-60
2023/07/28 00:34:22;;;;;;;0.35;0.35;;;;;;;18.00;100.00;99836.00;5015148;28;20433;-62
2023/07/28 00:36:48;;;;;;;1.77;0.10;;;;;;;18.02;100.00;99831.19;5020056;28;20330;-62
2023/07/28 00:39:13;;;;;;;0.10;0.00;;;;;;;18.08;100.00;99825.59;5019608;28;20041;-65
2023/07/28 00:41:39;;;;;;;0.35;0.00;;;;;;;18.17;100.00;99828.59;5019619;28;20061;-62
2023/07/28 00:44:04;;;;;;;0.20;0.05;;;;;;;18.28;100.00;99830.31;5013289;28;20041;-63
2023/07/28 00:46:30;;;;;;;0.10;0.10;;;;;;;18.29;100.00;99820.38;5016333;28;20051;-62
2023/07/28 00:48:56;;;;;;;0.28;0.00;;;;;;;18.31;100.00;99812.91;5018686;28;20118;-62
2023/07/28 00:51:21;;;;;;;0.15;0.15;;;;;;;18.30;100.00;99817.47;5020750;28;20083;-61
2023/07/28 00:53:47;;;;;;;0.05;0.05;;;;;;;18.32;100.00;99811.81;5019429;28;20390;-62
2023/07/28 00:56:13;;;;;;;0.57;0.00;;;;;;;18.35;100.00;99821.22;5019706;28;20033;-62
2023/07/28 00:58:39;;;;;;;0.00;0.00;;;;;;;18.41;100.00;99822.91;5017777;28;20943;-62
2023/07/28 01:01:04;;;;;;;0.80;0.13;;;;;;;18.47;100.00;99819.97;5021141;28;20057;-62
2023/07/28 01:03:31;;;;;;;1.38;0.10;;;;;;;18.48;100.00;99820.78;5013890;28;20685;-62
2023/07/28 01:06:17;;;;;;;0.10;0.00;;;;;;;18.49;100.00;99823.22;5012963;28;20041;-62
2023/07/28 01:08:47;;;;;;;0.25;0.00;;;;;;;18.46;100.00;99823.72;5016527;28;20041;-61
2023/07/28 01:11:14;;;;;;;0.00;0.00;;;;;;;18.47;100.00;99819.97;5020534;28;20067;-61
2023/07/28 01:13:39;;;;;;;0.20;0.00;;;;;;;18.51;100.00;99828.31;5026907;28;20022;-62
2023/07/28 01:16:05;;;;;;;0.85;0.00;;;;;;;18.53;100.00;99823.47;5012444;28;20072;-61
2023/07/28 01:18:30;;;;;;;0.15;0.10;;;;;;;18.51;100.00;99831.00;5020170;28;20897;-61
2023/07/28 01:21:00;;;;;;;0.00;0.00;;;;;;;18.55;100.00;99828.59;5021370;28;20076;-58
2023/07/28 01:23:39;;;;;;;0.00;0.00;;;;;;;18.55;100.00;99828.59;5011614;28;20037;-60
2023/07/28 01:26:10;;;;;;;0.10;0.10;;;;;;;18.60;100.00;99831.31;5018719;28;20048;-62
2023/07/28 01:28:36;;;;;;;1.73;0.17;;;;;;;18.67;100.00;99824.66;5010679;28;20057;-60
2023/07/28 01:31:03;;;;;;;0.00;0.00;;;;;;;18.67;100.00;99832.72;5016304;28;20060;-62
2023/07/28 01:33:29;;;;;;;0.22;0.00;;;;;;;18.67;100.00;99838.09;5030690;28;20482;-57
2023/07/28 01:35:54;;;;;;;0.60;0.03;;;;;;;18.71;100.00;99836.47;5016923;28;20124;-61
2023/07/28 01:38:19;;;;;;;1.02;0.15;;;;;;;18.63;100.00;99844.22;5020792;28;20513;-61
2023/07/28 01:40:45;;;;;;;0.43;0.10;;;;;;;18.58;100.00;99842.31;5021042;28;20110;-63
2023/07/28 01:43:10;;;;;;;0.20;0.00;;;;;;;18.65;100.00;99844.78;5016676;28;20037;-67
2023/07/28 01:45:35;;;;;;;0.00;0.00;;;;;;;18.69;100.00;99837.81;5013821;28;20042;-67
2023/07/28 01:48:01;;;;;;;0.45;0.00;;;;;;;18.71;100.00;99838.34;5017343;28;20041;-63
2023/07/28 01:50:26;;;;;;;0.63;0.55;;;;;;;18.72;100.00;99840.00;5020789;28;20032;-60
2023/07/28 01:52:51;;;;;;;0.00;0.00;;;;;;;18.75;100.00;99834.13;5014894;28;20111;-63
2023/07/28 01:55:17;;;;;;;0.20;0.00;;;;;;;18.69;100.00;99835.13;5017932;28;20500;-64
2023/07/28 01:57:51;;;;;;;0.00;0.00;;;;;;;18.76;100.00;99846.47;5020529;28;20358;-62
2023/07/28 02:00:17;;;;;;;0.20;0.00;;;;;;;18.72;100.00;99840.00;5016079;28;20084;-60
2023/07/28 02:02:42;;;;;;;0.00;0.00;;;;;;;18.67;100.00;99829.22;5018940;28;20522;-54
2023/07/28 02:05:08;;;;;;;0.00;0.00;;;;;;;18.63;100.00;99825.44;5017969;28;20032;-62
2023/07/28 02:07:33;;;;;;;0.00;0.00;;;;;;;18.65;100.00;99828.66;5019355;28;20040;-62
2023/07/28 02:09:58;;;;;;;0.00;0.00;;;;;;;18.66;100.00;99824.91;5020934;28;20094;-60
2023/07/28 02:12:24;;;;;;;0.00;0.00;;;;;;;18.66;100.00;99820.34;5016793;28;20025;-58
2023/07/28 02:14:50;;;;;;;0.10;0.10;;;;;;;18.58;100.00;99820.03;5018696;28;20033;-56
2023/07/28 02:17:15;;;;;;;2.40;0.00;;;;;;;18.56;100.00;99814.94;5016615;28;20061;-57
2023/07/28 02:19:42;;;;;;;0.25;0.00;;;;;;;18.58;100.00;99820.03;5020599;28;20061;-51
2023/07/28 02:22:07;;;;;;;0.32;0.00;;;;;;;18.63;100.00;99814.69;5020682;28;20052;-60
2023/07/28 02:24:32;;;;;;;0.10;0.00;;;;;;;18.63;100.00;99812.81;5020789;28;20026;-57
2023/07/28 02:26:57;;;;;;;0.47;0.00;;;;;;;18.61;100.00;99808.75;5013949;28;20074;-62
2023/07/28 02:29:23;;;;;;;0.00;0.00;;;;;;;18.60;100.00;99801.78;5015781;28;20470;-60
2023/07/28 02:31:48;;;;;;;0.00;0.00;;;;;;;18.66;100.00;99801.53;5019346;28;20435;-61
2023/07/28 02:34:13;;;;;;;0.00;0.00;;;;;;;18.67;100.00;99808.53;5016601;28;20033;-61
2023/07/28 02:36:39;;;;;;;0.00;0.00;;;;;;;18.67;100.00;99807.75;5020678;28;20032;-57
2023/07/28 02:39:04;;;;;;;0.00;0.00;;;;;;;18.63;100.00;99796.69;5016898;28;20036;-61
2023/07/28 02:41:29;;;;;;;0.00;0.00;;;;;;;18.58;100.00;99798.56;5021165;28;20546;-60
2023/07/28 02:43:55;;;;;;;0.00;0.00;;;;;;;18.53;100.00;99802.84;5023889;28;20486;-53
2023/07/28 02:46:20;;;;;;;0.00;0.00;;;;;;;18.58;100.00;99801.25;5016542;28;20037;-60
2023/07/28 02:48:45;;;;;;;0.00;0.00;;;;;;;18.52;100.00;99803.09;5018521;28;20037;-54
2023/07/28 02:51:11;;;;;;;4.90;0.60;;;;;;;18.47;100.00;99806.53;5020333;28;20322;-61
2023/07/28 02:53:36;;;;;;;0.00;0.00;;;;;;;18.46;100.00;99807.63;5016859;28;20033;-60
2023/07/28 02:56:01;;;;;;;0.00;0.00;;;;;;;18.50;100.00;99808.72;5024873;28;20505;-61
2023/07/28 02:58:27;;;;;;;0.00;0.00;;;;;;;18.50;100.00;99811.38;5023563;28;20074;-61
2023/07/28 03:00:52;;;;;;;0.00;0.00;;;;;;;18.47;100.00;99819.97;5024649;28;20056;-57
2023/07/28 03:03:17;;;;;;;0.10;0.00;;;;;;;18.48;100.00;99821.59;5023841;28;20562;-64
2023/07/28 03:05:43;;;;;;;0.00;0.00;;;;;;;18.53;100.00;99820.81;5023080;28;20504;-62
2023/07/28 03:08:08;;;;;;;0.35;0.10;;;;;;;18.51;100.00;99817.59;5014738;28;20144;-62
2023/07/28 03:10:33;;;;;;;0.03;0.00;;;;;;;18.55;100.00;99807.94;5023864;28;20041;-63
2023/07/28 03:12:59;;;;;;;0.00;0.00;;;;;;;18.52;100.00;99809.25;5022829;28;20041;-62
2023/07/28 03:15:24;;;;;;;0.00;0.00;;;;;;;18.58;100.00;99810.09;5022044;28;20044;-62
2023/07/28 03:17:50;;;;;;;1.45;0.00;;;;;;;18.48;100.00;99801.97;5020959;28;20017;-64
2023/07/28 03:20:16;;;;;;;0.00;0.00;;;;;;;18.46;100.00;99804.94;5017503;28;20032;-62
2023/07/28 03:22:41;;;;;;;0.10;0.00;;;;;;;18.52;100.00;99803.09;5019447;28;20029;-62
2023/07/28 03:25:07;;;;;;;0.32;0.00;;;;;;;18.52;100.00;99809.25;5023594;28;20029;-62
2023/07/28 03:27:33;;;;;;;0.00;0.00;;;;;;;18.56;100.00;99812.25;5021099;28;20557;-60
2023/07/28 03:29:58;;;;;;;0.00;0.00;;;;;;;18.52;100.00;99813.81;5017519;28;20060;-55
2023/07/28 03:32:23;;;;;;;0.00;0.00;;;;;;;18.51;100.00;99818.41;5021188;28;20112;-59
2023/07/28 03:34:49;;;;;;;0.10;0.00;;;;;;;18.45;100.00;99823.97;5023837;28;20033;-56
2023/07/28 03:37:14;;;;;;;0.00;0.00;;;;;;;18.50;100.00;99819.44;5021493;28;20034;-58
2023/07/28 03:39:39;;;;;;;0.00;0.00;;;;;;;18.48;100.00;99821.59;5019521;28;20117;-60
2023/07/28 03:42:05;;;;;;;0.00;0.00;;;;;;;18.47;100.00;99828.03;5023234;28;20510;-54
2023/07/28 03:44:30;;;;;;;0.10;0.00;;;;;;;18.35;100.00;99832.75;5022278;28;20068;-62
2023/07/28 03:46:56;;;;;;;0.00;0.00;;;;;;;18.37;100.00;99832.50;5023842;28;20040;-62
2023/07/28 03:49:21;;;;;;;2.28;0.30;;;;;;;18.38;100.00;99837.63;5021258;28;20167;-62
2023/07/28 03:51:46;;;;;;;0.10;0.00;;;;;;;18.31;100.00;99835.16;5017247;28;20034;-59
2023/07/28 03:54:12;;;;;;;0.00;0.00;;;;;;;18.18;100.00;99832.13;5017542;28;20540;-59
2023/07/28 03:56:37;;;;;;;0.00;0.00;;;;;;;18.23;100.00;99838.34;5016389;28;20124;-61
2023/07/28 03:59:03;;;;;;;0.00;0.00;;;;;;;18.17;100.00;99833.97;5022653;28;20390;-58
2023/07/28 04:01:28;;;;;;;0.00;0.00;;;;;;;18.16;100.00;99831.56;5018838;28;20404;-61
2023/07/28 04:03:53;;;;;;;0.20;0.00;;;;;;;18.18;100.00;99834.81;5022930;28;20037;-58
2023/07/28 04:06:19;;;;;;;0.20;0.00;;;;;;;18.18;100.00;99827.56;5020853;28;20501;-59
2023/07/28 04:08:44;;;;;;;0.00;0.00;;;;;;;18.18;100.00;99834.81;5014542;28;20042;-59
2023/07/28 04:11:10;;;;;;;0.00;0.00;;;;;;;18.19;100.00;99839.09;5020922;28;20467;-49
2023/07/28 04:13:35;;;;;;;0.00;0.00;;;;;;;18.19;100.00;99841.78;5024289;28;20036;-56
2023/07/28 04:16:01;;;;;;;0.13;0.00;;;;;;;18.20;100.00;99843.38;5022208;28;20125;-58
2023/07/28 04:18:26;;;;;;;0.00;0.00;;;;;;;18.16;100.00;99843.09;5024399;28;20029;-60
2023/07/28 04:20:52;;;;;;;0.65;0.00;;;;;;;18.13;100.00;99853.53;5023628;28;20038;-55
2023/07/28 04:23:17;;;;;;;0.10;0.00;;;;;;;18.14;100.00;99860.50;5021821;28;20056;-61
2023/07/28 04:25:42;;;;;;;0.22;0.00;;;;;;;18.14;100.00;99855.97;5022816;28;20508;-59
2023/07/28 04:28:09;;;;;;;0.95;0.00;;;;;;;18.11;100.00;99858.34;5021617;28;20092;-55
2023/07/28 04:30:35;;;;;;;0.00;0.00;;;;;;;18.11;100.00;99858.34;5015679;28;20034;-53
2023/07/28 04:33:00;;;;;;;1.02;0.00;;;;;;;18.12;100.00;99860.75;5017964;28;20057;-54
2023/07/28 04:35:25;;;;;;;0.47;0.00;;;;;;;18.11;100.00;99855.66;5022998;28;20497;-56
2023/07/28 04:37:51;;;;;;;0.00;0.00;;;;;;;18.02;100.00;99861.50;5018626;28;20431;-58
2023/07/28 04:40:16;;;;;;;0.90;0.08;;;;;;;18.01;100.00;99857.19;5022276;28;20037;-55
2023/07/28 04:42:42;;;;;;;0.35;0.10;;;;;;;17.98;100.00;99864.94;5020763;28;20033;-60
2023/07/28 04:45:08;;;;;;;0.00;0.00;;;;;;;18.00;100.00;99855.59;5019276;28;20121;-61
2023/07/28 04:47:33;;;;;;;0.10;0.10;;;;;;;17.97;100.00;99869.50;5022247;28;20075;-60
2023/07/28 04:49:58;;;;;;;0.10;0.10;;;;;;;17.97;100.00;99866.03;5022124;28;20113;-63
2023/07/28 04:52:24;;;;;;;0.10;0.10;;;;;;;18.00;100.00;99865.50;5019841;28;20048;-62
2023/07/28 04:54:49;;;;;;;0.17;0.00;;;;;;;18.08;100.00;99863.16;5016209;28;20033;-61
2023/07/28 04:57:14;;;;;;;0.20;0.03;;;;;;;18.17;100.00;99870.72;5016598;28;20037;-59
2023/07/28 04:59:40;;;;;;;0.88;0.00;;;;;;;18.20;100.00;99871.03;5010988;28;20172;-62
2023/07/28 05:02:06;;;;;;;0.68;0.10;;;;;;;18.19;100.00;99871.28;5019868;28;20514;-59
2023/07/28 05:04:31;;;;;;;0.63;0.52;;;;;;;18.20;100.00;99870.22;5023355;28;20033;-61
2023/07/28 05:06:56;;;;;;;0.03;0.03;;;;;;;18.22;100.00;99871.56;5020616;28;20029;-59
2023/07/28 05:09:22;;;;;;;0.10;0.00;;;;;;;18.24;100.00;99871.34;5021227;28;20061;-58
2023/07/28 05:11:47;;;;;;;0.17;0.08;;;;;;;18.19;100.00;99865.94;5020361;28;20041;-60
2023/07/28 05:14:12;;;;;;;0.10;0.00;;;;;;;18.23;100.00;99867.03;5019585;28;20534;-58
2023/07/28 05:16:38;;;;;;;0.10;0.00;;;;;;;18.25;100.00;99864.88;5017847;28;20503;-59
2023/07/28 05:19:07;;;;;;;0.75;0.00;;;;;;;18.24;100.00;99866.78;5021686;28;20041;-53
2023/07/28 05:21:32;;;;;;;0.00;0.00;;;;;;;18.19;100.00;99865.94;5018245;28;20030;-53
2023/07/28 05:23:57;;;;;;;0.60;0.20;;;;;;;18.08;100.00;99868.53;5013549;28;21212;-58
2023/07/28 05:26:23;;;;;;;0.10;0.10;;;;;;;18.16;100.00;99863.75;5022057;28;21920;-61
2023/07/28 05:28:48;;;;;;;1.58;0.20;;;;;;;18.20;100.00;99870.22;5018607;28;20036;-55
2023/07/28 05:31:15;;;;;;;0.20;0.20;;;;;;;18.14;100.00;99869.38;5009906;28;20034;-58
2023/07/28 05:33:40;;;;;;;0.73;0.00;;;;;;;18.19;100.00;99869.41;5022124;28;20025;-59
2023/07/28 05:36:06;;;;;;;0.10;0.03;;;;;;;18.22;100.00;99870.78;5016721;28;20420;-51
2023/07/28 05:38:31;;;;;;;1.30;0.00;;;;;;;18.13;100.00;99869.66;5021662;28;20029;-62
2023/07/28 05:41:00;;;;;;;0.00;0.00;;;;;;;18.22;100.00;99881.50;5014717;28;20034;-57
2023/07/28 05:43:25;;;;;;;0.00;0.00;;;;;;;18.30;100.00;99867.59;5022292;28;20033;-56
2023/07/28 05:45:51;;;;;;;1.35;0.00;;;;;;;18.34;100.00;99871.41;5019239;28;20041;-59
2023/07/28 05:48:16;;;;;;;0.05;0.00;;;;;;;18.42;100.00;99875.50;5020580;28;20033;-62
2023/07/28 05:50:41;;;;;;;0.00;0.00;;;;;;;18.43;100.00;99869.06;5022140;28;20179;-61
2023/07/28 05:53:07;;;;;;;0.00;0.00;;;;;;;18.56;100.00;99867.78;5015630;28;20034;-61
2023/07/28 05:55:32;;;;;;;0.00;0.00;;;;;;;18.74;100.00;99878.09;5021773;28;20029;-61
2023/07/28 05:57:58;;;;;;;0.00;0.00;;;;;;;18.82;100.00;99869.63;5013842;28;20495;-59
2023/07/28 06:00:23;;;;;;;0.00;0.00;;;;;;;18.86;100.00;99868.00;5010577;28;20116;-62
2023/07/28 06:02:49;;;;;;;0.00;0.00;;;;;;;18.84;100.00;99872.81;5013523;28;20042;-61
2023/07/28 06:05:14;;;;;;;1.23;0.15;;;;;;;18.76;100.00;99869.84;5019337;28;20091;-61
2023/07/28 06:07:40;;;;;;;0.00;0.00;;;;;;;18.68;100.00;99873.78;5017099;28;20037;-62
2023/07/28 06:10:06;;;;;;;0.10;0.10;;;;;;;18.73;100.00;99879.19;5020244;28;20518;-61
2023/07/28 06:12:31;;;;;;;0.00;0.00;;;;;;;18.78;100.00;99886.50;5021082;28;20048;-62
2023/07/28 06:14:56;;;;;;;0.13;0.00;;;;;;;18.79;100.00;99877.38;5018761;28;20053;-61
2023/07/28 06:17:22;;;;;;;0.13;0.08;;;;;;;18.81;100.00;99884.09;5023900;28;20029;-49
2023/07/28 06:19:47;;;;;;;0.25;0.20;;;;;;;18.84;100.00;99880.09;5022824;28;20498;-57
2023/07/28 06:22:12;;;;;;;0.00;0.00;;;;;;;18.91;100.00;99886.84;5016211;28;20474;-58
2023/07/28 06:24:37;;;;;;;2.00;0.17;;;;;;;18.96;100.00;99883.38;5041483;28;20041;-55
2023/07/28 06:27:07;;;;;;;0.00;0.00;;;;;;;18.95;100.00;99882.56;5021454;28;20478;-55
2023/07/28 06:29:33;;;;;;;0.15;0.00;;;;;;;18.92;100.00;99885.78;5023317;28;20033;-56
2023/07/28 06:31:58;;;;;;;0.00;0.00;;;;;;;18.94;100.00;99877.44;5024897;28;20029;-58
2023/07/28 06:34:23;;;;;;;0.00;0.00;;;;;;;18.99;100.00;99882.06;5025339;28;20036;-60
2023/07/28 06:36:49;;;;;;;0.43;0.00;;;;;;;19.02;100.00;99876.16;5023476;28;20029;-61
2023/07/28 06:39:14;;;;;;;0.10;0.00;;;;;;;19.15;100.00;99886.41;5040029;28;20030;-61
2023/07/28 06:41:40;;;;;;;1.15;0.70;;;;;;;19.22;100.00;99887.00;5022138;28;20104;-57
2023/07/28 06:44:05;;;;;;;0.00;0.00;;;;;;;19.25;100.00;99891.03;5024857;28;20033;-62
2023/07/28 06:46:31;;;;;;;0.10;0.00;;;;;;;19.34;100.00;99889.47;5024054;28;20047;-62
2023/07/28 06:48:56;;;;;;;0.00;0.00;;;;;;;19.44;100.00;99880.59;5025078;28;20056;-59
2023/07/28 06:51:21;;;;;;;0.10;0.00;;;;;;;19.51;100.00;99881.97;5023802;28;20025;-61
2023/07/28 06:53:47;;;;;;;1.00;0.00;;;;;;;19.56;100.00;99875.81;5022817;28;20037;-62
2023/07/28 06:56:12;;;;;;;0.40;0.20;;;;;;;19.52;100.00;99882.81;5018071;28;20041;-62
2023/07/28 06:58:37;;;;;;;0.28;0.00;;;;;;;19.56;100.00;99883.88;5025816;28;20394;-61
2023/07/28 07:01:03;;;;;;;0.00;0.00;;;;;;;19.60;100.00;99877.72;5021709;28;20418;-62
2023/07/28 07:03:28;;;;;;;1.55;0.00;;;;;;;19.59;100.00;99888.72;5011959;28;20030;-53
2023/07/28 07:05:53;;;;;;;0.00;0.00;;;;;;;19.68;100.00;99886.38;5023775;28;20029;-59
2023/07/28 07:08:19;;;;;;;1.45;0.00;;;;;;;19.77;100.00;99884.75;5024703;28;20076;-62
2023/07/28 07:10:51;;;;;;;0.10;0.00;;;;;;;19.86;100.00;99890.44;5022462;28;20033;-57
2023/07/28 07:13:16;;;;;;;0.35;0.00;;;;;;;19.97;100.00;99886.69;5016519;28;20034;-57
2023/07/28 07:15:42;;;;;;;0.28;0.00;;;;;;;19.99;100.00;99885.34;5024698;28;20091;-62
2023/07/28 07:18:07;;;;;;;1.75;0.00;;;;;;;20.11;100.00;99892.34;5023462;28;20455;-58
2023/07/28 07:20:36;;;;;;;1.25;0.00;;;;;;;20.25;100.00;99891.53;5022828;28;20543;-62
2023/07/28 07:23:02;;;;;;;0.50;0.00;;;;;;;20.31;100.00;99886.16;5024049;28;20370;-57
2023/07/28 07:25:27;;;;;;;0.00;0.00;;;;;;;20.36;100.00;99883.47;5021167;28;20030;-63
2023/07/28 07:27:52;;;;;;;0.80;0.10;;;;;;;20.52;100.00;99882.34;5019404;28;20119;-63
2023/07/28 07:30:18;;;;;;;0.10;0.00;;;;;;;20.51;100.00;99886.13;5015520;28;20064;-62
2023/07/28 07:32:43;;;;;;;1.65;0.00;;;;;;;20.54;100.00;99879.41;5022938;28;20025;-64
2023/07/28 07:35:09;;;;;;;0.00;0.00;;;;;;;20.43;100.00;99884.00;5025302;28;20148;-63
2023/07/28 07:37:34;;;;;;;0.30;0.00;;;;;;;20.33;100.00;99878.63;5023085;28;20034;-64
2023/07/28 07:40:01;;;;;;;0.00;0.00;;;;;;;20.05;100.00;99870.81;5022994;28;20052;-69
2023/07/28 07:42:27;;;;;;;0.00;0.00;;;;;;;19.80;100.00;99876.97;5018850;28;20033;-65
2023/07/28 07:44:52;;;;;;;0.00;0.00;;;;;;;19.83;100.00;99876.44;5020544;28;20094;-64
2023/07/28 07:47:18;;;;;;;0.47;0.00;;;;;;;19.90;100.00;99876.16;5023062;28;20474;-61
2023/07/28 07:49:43;;;;;;;0.32;0.00;;;;;;;19.83;100.00;99876.44;5025390;28;20029;-56
2023/07/28 07:52:09;;;;;;;0.10;0.00;;;;;;;19.86;100.00;99885.06;5017567;28;20055;-55
2023/07/28 07:54:35;;;;;;;1.30;0.00;;;;;;;19.93;100.00;99890.97;5024330;28;20490;-53
2023/07/28 07:57:00;;;;;;;0.80;0.00;;;;;;;20.11;100.00;99892.34;5021653;28;20064;-57
2023/07/28 07:59:27;;;;;;;0.75;0.00;;;;;;;20.26;100.00;99879.72;5023459;28;20033;-53
2023/07/28 08:01:53;;;;;;;0.80;0.00;;;;;;;20.42;100.00;99876.97;5019217;28;20568;-57
2023/07/28 08:04:19;;;;;;;0.10;0.00;;;;;;;20.62;100.00;99866.22;5023266;28;20034;-58
2023/07/28 08:06:44;;;;;;;0.00;0.00;;;;;;;20.88;100.00;99868.84;5018880;28;20052;-53
2023/07/28 08:09:09;;;;;;;2.17;0.00;;;;;;;21.06;100.00;99865.56;5022820;28;20036;-61
2023/07/28 08:11:35;;;;;;;0.10;0.00;;;;;;;21.05;100.00;99866.66;5023449;28;20035;-53
2023/07/28 08:14:00;;;;;;;0.75;0.00;;;;;;;20.91;100.00;99871.81;5023649;28;20029;-59
2023/07/28 08:16:26;;;;;;;0.08;0.00;;;;;;;20.63;100.00;99865.16;5022347;28;20034;-58
2023/07/28 08:18:51;;;;;;;1.98;0.00;;;;;;;20.48;100.00;99875.91;5021485;28;20207;-65
2023/07/28 08:21:16;;;;;;;0.73;0.05;;;;;;;20.69;100.00;99872.13;5023538;28;20026;-62
2023/07/28 08:23:42;;;;;;;0.05;0.00;;;;;;;21.28;100.00;99873.28;5019657;28;20058;-63
2023/07/28 08:26:07;;;;;;;0.00;0.00;;;;;;;21.60;100.00;99868.56;5021228;28;20632;-63
2023/07/28 08:28:33;;;;;;;4.30;0.00;;;;;;;21.61;100.00;99859.38;5022998;28;20041;-65
2023/07/28 08:30:58;;;;;;;0.20;0.00;;;;;;;21.66;100.00;99862.06;5020440;28;20413;-59
2023/07/28 08:33:24;;;;;;;2.22;0.20;;;;;;;21.72;100.00;99863.66;5018788;28;20033;-60
2023/07/28 08:35:50;;;;;;;0.52;0.00;;;;;;;21.48;100.00;99856.25;5022580;28;20033;-63
2023/07/28 08:38:16;;;;;;;0.55;0.28;;;;;;;21.35;100.00;99863.03;5019957;28;20072;-49
2023/07/28 08:40:44;;;;;;;0.00;0.00;;;;;;;21.27;100.00;99860.91;5021740;28;20045;-56
2023/07/28 08:43:09;;;;;;;0.17;0.17;;;;;;;21.23;100.00;99861.72;5021521;28;20026;-62
2023/07/28 08:45:34;;;;;;;0.73;0.00;;;;;;;21.32;100.00;99868.13;5022947;28;20447;-62
2023/07/28 08:48:00;;;;;;;0.80;0.00;;;;;;;21.41;100.00;99866.53;5019377;28;20368;-62
2023/07/28 08:50:25;;;;;;;0.57;0.00;;;;;;;21.43;100.00;99858.97;5017361;28;20387;-63
2023/07/28 08:52:51;;;;;;;1.20;0.00;;;;;;;21.32;100.00;99860.06;5021925;28;20040;-64
2023/07/28 08:55:17;;;;;;;0.10;0.00;;;;;;;21.32;100.00;99863.56;5019233;28;20065;-63
2023/07/28 08:57:43;;;;;;;0.00;0.00;;;;;;;21.34;100.00;99865.97;5016383;28;20108;-62
2023/07/28 09:00:13;;;;;;;0.10;0.00;;;;;;;21.26;100.00;99866.56;5016117;28;20026;-64
2023/07/28 09:02:38;;;;;;;0.55;0.00;;;;;;;21.22;100.00;99868.19;5016703;28;20057;-57
2023/07/28 09:05:05;;;;;;;0.65;0.00;;;;;;;21.25;100.00;99867.66;5014505;28;20111;-64
2023/07/28 09:07:35;;;;;;;0.68;0.00;;;;;;;21.16;100.00;99869.31;5016985;28;20499;-65
2023/07/28 09:10:01;;;;;;;0.75;0.00;;;;;;;21.06;100.00;99868.25;5022419;28;20075;-62
2023/07/28 09:12:26;;;;;;;0.85;0.30;;;;;;;21.24;100.00;99872.22;5017013;28;20037;-63
2023/07/28 09:14:56;;;;;;;0.00;0.00;;;;;;;21.24;100.00;99874.91;5011890;28;20038;-66
2023/07/28 09:17:21;;;;;;;0.25;0.00;;;;;;;21.25;100.00;99873.06;5012941;28;20033;-63
2023/07/28 09:19:52;;;;;;;0.52;0.00;;;;;;;21.14;100.00;99877.66;5016988;28;20484;-63
2023/07/28 09:22:17;;;;;;;0.10;0.00;;;;;;;21.04;100.00;99883.91;5012262;28;20333;-63
2023/07/28 09:24:43;;;;;;;0.30;0.00;;;;;;;20.99;100.00;99892.00;5009379;28;20025;-63
2023/07/28 09:27:19;;;;;;;1.23;0.08;;;;;;;20.82;100.00;99897.69;5019814;28;20044;-63
2023/07/28 09:29:48;;;;;;;0.03;0.00;;;;;;;20.94;100.00;99894.72;5020686;28;20033;-63
2023/07/28 09:32:13;;;;;;;0.10;0.00;;;;;;;20.86;100.00;99898.78;5013569;28;20115;-56
2023/07/28 09:34:38;;;;;;;0.35;0.00;;;;;;;20.97;100.00;99893.38;5016533;28;20033;-53
2023/07/28 09:37:05;;;;;;;0.00;0.00;;;;;;;21.23;100.00;99891.38;5019428;28;20056;-55
2023/07/28 09:39:31;;;;;;;0.10;0.00;;;;;;;21.31;100.00;99888.09;5014050;28;20029;-63
2023/07/28 09:41:59;;;;;;;0.10;0.00;;;;;;;21.49;100.00;99892.91;5021373;28;20021;-65
2023/07/28 09:44:25;;;;;;;1.25;0.00;;;;;;;21.51;100.00;99884.53;5020641;28;20025;-63
2023/07/28 09:46:51;;;;;;;0.35;0.00;;;;;;;21.95;100.00;99889.13;5015818;28;20053;-64
2023/07/28 09:49:22;;;;;;;1.45;0.10;;;;;;;22.27;100.00;99883.22;5019470;28;20052;-60
2023/07/28 09:51:51;;;;;;;1.10;0.00;;;;;;;22.56;100.00;99875.16;5018212;28;20491;-64
2023/07/28 09:54:27;;;;;;;0.00;0.00;;;;;;;22.55;100.00;99875.44;5015872;28;20513;-58
2023/07/28 09:56:56;;;;;;;0.00;0.00;;;;;;;22.82;100.00;99872.97;5017424;28;20140;-61
2023/07/28 09:59:27;;;;;;;0.00;0.00;;;;;;;22.82;100.00;99861.34;5015149;28;20442;-63
2023/07/28 10:01:53;;;;;;;0.00;0.00;;;;;;;22.90;100.00;99868.84;5021397;28;20052;-62
2023/07/28 10:04:20;;;;;;;0.00;0.00;;;;;;;23.01;100.00;99869.56;5021246;28;20033;-66
2023/07/28 10:06:47;;;;;;;0.35;0.10;;;;;;;22.91;100.00;99869.66;5013429;28;20125;-66
2023/07/28 10:09:16;;;;;;;0.00;0.00;;;;;;;22.75;100.00;99869.00;5017138;28;20120;-65
2023/07/28 10:11:41;;;;;;;1.27;0.00;;;;;;;22.50;100.00;99875.47;5018963;28;20375;-63
2023/07/28 10:14:10;;;;;;;1.10;0.00;;;;;;;22.45;100.00;99868.22;5013482;28;20037;-65
2023/07/28 10:16:40;;;;;;;0.00;0.00;;;;;;;22.22;100.00;99880.56;5020469;28;20049;-65
2023/07/28 10:19:05;;;;;;;0.00;0.00;;;;;;;22.15;100.00;99882.75;5032754;28;20394;-65
2023/07/28 10:21:31;;;;;;;2.22;0.00;;;;;;;22.03;100.00;99876.94;5019685;28;20049;-63
2023/07/28 10:23:58;;;;;;;0.52;0.00;;;;;;;22.19;100.00;99886.53;5018156;28;20087;-63
2023/07/28 10:26:38;;;;;;;0.10;0.00;;;;;;;22.26;100.00;99870.81;5020752;28;20038;-63
2023/07/28 10:29:14;;;;;;;0.05;0.00;;;;;;;22.52;100.00;99867.91;5020006;28;20038;-63
2023/07/28 10:31:55;;;;;;;0.80;0.30;;;;;;;22.59;100.00;99869.16;5019359;28;20033;-53
2023/07/28 10:34:21;;;;;;;0.20;0.00;;;;;;;22.41;100.00;99873.38;5019350;28;20418;-64
2023/07/28 10:36:55;;;;;;;0.00;0.00;;;;;;;22.25;100.00;99876.50;5018095;28;20033;-55
2023/07/28 10:39:21;;;;;;;0.20;0.00;;;;;;;22.05;100.00;99877.47;5020259;28;20025;-64
2023/07/28 10:42:08;;;;;;;0.00;0.00;;;;;;;22.07;100.00;99881.50;5019075;28;20041;-64
2023/07/28 10:44:34;;;;;;;0.00;0.00;;;;;;;22.11;100.00;99879.03;5016272;28;20103;-66
2023/07/28 10:47:01;;;;;;;0.00;0.00;;;;;;;21.98;100.00;99877.75;5012378;28;20041;-66
2023/07/28 10:49:26;;;;;;;0.00;0.00;;;;;;;22.03;100.00;99879.63;5018921;28;20393;-66
2023/07/28 10:51:52;;;;;;;0.10;0.00;;;;;;;22.14;100.00;99878.44;5013468;28;20033;-65
2023/07/28 10:54:19;;;;;;;0.10;0.00;;;;;;;22.14;100.00;99879.25;5019821;28;20052;-64
2023/07/28 10:56:48;;;;;;;0.68;0.00;;;;;;;22.20;100.00;99877.34;5019507;28;20037;-68
2023/07/28 10:59:15;;;;;;;0.00;0.00;;;;;;;22.30;100.00;99869.16;5016523;28;20548;-64
2023/07/28 11:01:41;;;;;;;0.00;0.00;;;;;;;22.52;100.00;99867.91;5018553;28;20136;-65
2023/07/28 11:04:12;;;;;;;0.00;0.00;;;;;;;22.79;100.00;99872.72;5020430;28;20124;-64
2023/07/28 11:06:43;;;;;;;0.00;0.00;;;;;;;22.95;100.00;99862.56;5023964;28;20037;-65
2023/07/28 11:09:09;;;;;;;0.30;0.00;;;;;;;23.19;100.00;99863.38;5021267;28;20025;-66
2023/07/28 11:11:36;;;;;;;0.20;0.00;;;;;;;23.49;100.00;99858.66;5024401;28;20037;-65
2023/07/28 11:14:04;;;;;;;0.00;0.00;;;;;;;23.61;100.00;99856.31;5020742;28;20030;-65
2023/07/28 11:16:31;;;;;;;1.75;0.00;;;;;;;23.54;100.00;99861.28;5019262;28;20033;-65
2023/07/28 11:19:01;;;;;;;0.00;0.00;;;;;;;23.42;100.00;99866.34;5021212;28;20478;-66